createdAt,value
2018-04-27T00:00:05.792Z,10.28
2018-04-27T00:01:05.786Z,10.3
2018-04-27T00:02:06.112Z,10.23
2018-04-27T00:03:05.777Z,10.28
2018-04-27T00:04:06.014Z,10.25
2018-04-27T00:05:06.164Z,10.16
2018-04-27T00:06:05.762Z,10.23
2018-04-27T00:07:05.758Z,10.12
2018-04-27T00:08:05.992Z,10.12
2018-04-27T00:09:05.998Z,10.16
2018-04-27T00:10:06.040Z,10.22
2018-04-27T00:11:05.734Z,10.07
2018-04-27T00:12:05.742Z,9.99
2018-04-27T00:13:06.235Z,9.99
2018-04-27T00:14:05.721Z,10.01
2018-04-27T00:15:05.963Z,10.01
2018-04-27T00:16:05.708Z,9.89
2018-04-27T00:17:05.957Z,9.94
2018-04-27T00:18:05.957Z,9.91
2018-04-27T00:19:05.950Z,9.89
2018-04-27T00:20:05.944Z,9.87
2018-04-27T00:21:05.949Z,9.84
2018-04-27T00:22:05.687Z,9.82
2018-04-27T00:23:05.933Z,9.8
2018-04-27T00:24:05.671Z,9.74
2018-04-27T00:25:05.918Z,9.73
2018-04-27T00:26:05.915Z,9.72
2018-04-27T00:27:05.904Z,9.62
2018-04-27T00:28:05.666Z,9.65
2018-04-27T00:29:05.413Z,9.65
2018-04-27T00:30:05.893Z,9.56
2018-04-27T00:31:05.402Z,9.56
2018-04-27T00:32:05.409Z,9.54
2018-04-27T00:33:05.634Z,9.55
2018-04-27T00:34:05.628Z,9.56
2018-04-27T00:35:05.630Z,9.55
2018-04-27T00:36:05.881Z,9.61
2018-04-27T00:37:05.620Z,9.76
2018-04-27T00:38:05.853Z,9.77
2018-04-27T00:39:05.609Z,9.79
2018-04-27T00:40:05.854Z,9.83
2018-04-27T00:41:05.586Z,9.79
2018-04-27T00:42:05.579Z,9.87
2018-04-27T00:43:05.586Z,9.84
2018-04-27T00:44:05.833Z,9.86
2018-04-27T00:45:05.570Z,9.74
2018-04-27T00:46:05.835Z,9.83
2018-04-27T00:47:05.820Z,9.83
2018-04-27T00:48:05.811Z,9.84
2018-04-27T00:49:05.805Z,9.84
2018-04-27T00:50:05.884Z,9.84
2018-04-27T00:51:05.549Z,9.8
2018-04-27T00:52:05.799Z,9.84
2018-04-27T00:53:05.545Z,9.74
2018-04-27T00:54:05.779Z,9.84
2018-04-27T00:55:05.778Z,9.82
2018-04-27T00:56:05.765Z,9.83
2018-04-27T00:57:05.277Z,9.87
2018-04-27T00:58:05.764Z,9.84
2018-04-27T00:59:05.753Z,9.84
2018-04-27T01:00:05.548Z,9.79
2018-04-27T01:01:05.513Z,9.77
2018-04-27T01:02:05.507Z,9.77
2018-04-27T01:03:05.744Z,9.74
2018-04-27T01:04:05.730Z,9.66
2018-04-27T01:05:05.726Z,9.55
2018-04-27T01:06:05.729Z,9.56
2018-04-27T01:07:05.715Z,9.54
2018-04-27T01:08:05.712Z,9.44
2018-04-27T01:09:05.708Z,9.44
2018-04-27T01:10:05.462Z,9.4
2018-04-27T01:11:05.469Z,9.36
2018-04-27T01:12:05.694Z,9.32
2018-04-27T01:13:05.688Z,9.29
2018-04-27T01:14:05.466Z,9.22
2018-04-27T01:15:05.689Z,9.18
2018-04-27T01:16:05.678Z,9.19
2018-04-27T01:17:05.668Z,9.16
2018-04-27T01:18:05.664Z,9.04
2018-04-27T01:19:05.171Z,9.1
2018-04-27T01:20:05.440Z,9.04
2018-04-27T01:21:05.427Z,9.02
2018-04-27T01:22:05.430Z,8.94
2018-04-27T01:23:05.547Z,8.94
2018-04-27T01:24:05.398Z,8.91
2018-04-27T01:25:05.638Z,8.91
2018-04-27T01:26:05.637Z,8.87
2018-04-27T01:27:05.397Z,8.88
2018-04-27T01:28:05.664Z,8.84
2018-04-27T01:29:05.617Z,8.78
2018-04-27T01:30:05.605Z,8.7
2018-04-27T01:31:05.592Z,8.74
2018-04-27T01:32:05.593Z,8.66
2018-04-27T01:33:05.464Z,8.76
2018-04-27T01:34:05.602Z,8.84
2018-04-27T01:35:05.618Z,8.71
2018-04-27T01:36:05.072Z,8.71
2018-04-27T01:37:05.333Z,8.78
2018-04-27T01:38:05.640Z,8.67
2018-04-27T01:39:05.575Z,8.67
2018-04-27T01:40:05.563Z,8.66
2018-04-27T01:41:05.563Z,8.73
2018-04-27T01:42:05.610Z,8.71
2018-04-27T01:43:05.604Z,8.71
2018-04-27T01:44:05.301Z,8.73
2018-04-27T01:45:05.305Z,8.7
2018-04-27T01:46:05.520Z,8.71
2018-04-27T01:47:05.555Z,8.69
2018-04-27T01:48:05.296Z,8.76
2018-04-27T01:49:05.267Z,8.74
2018-04-27T01:50:05.509Z,8.92
2018-04-27T01:51:05.503Z,8.87
2018-04-27T01:52:05.244Z,8.88
2018-04-27T01:53:05.251Z,8.88
2018-04-27T01:54:05.236Z,8.94
2018-04-27T01:55:05.486Z,8.91
2018-04-27T01:56:05.475Z,8.81
2018-04-27T01:57:05.466Z,8.78
2018-04-27T01:58:05.457Z,8.81
2018-04-27T01:59:04.949Z,8.78
2018-04-27T02:00:05.473Z,8.76
2018-04-27T02:01:05.449Z,8.84
2018-04-27T02:02:05.454Z,8.7
2018-04-27T02:03:05.183Z,8.69
2018-04-27T02:04:05.173Z,8.85
2018-04-27T02:05:05.432Z,8.74
2018-04-27T02:06:05.521Z,8.69
2018-04-27T02:07:05.152Z,8.64
2018-04-27T02:08:05.408Z,8.56
2018-04-27T02:09:05.143Z,8.64
2018-04-27T02:10:05.414Z,8.73
2018-04-27T02:11:05.396Z,8.76
2018-04-27T02:12:05.127Z,8.78
2018-04-27T02:13:05.416Z,8.71
2018-04-27T02:14:05.121Z,8.69
2018-04-27T02:15:05.113Z,8.69
2018-04-27T02:16:05.026Z,8.56
2018-04-27T02:17:05.373Z,8.53
2018-04-27T02:18:05.352Z,8.49
2018-04-27T02:19:05.356Z,8.45
2018-04-27T02:20:05.344Z,8.44
2018-04-27T02:21:05.345Z,8.51
2018-04-27T02:22:05.072Z,8.52
2018-04-27T02:23:05.329Z,8.45
2018-04-27T02:24:05.070Z,8.51
2018-04-27T02:25:04.807Z,8.53
2018-04-27T02:26:05.332Z,8.56
2018-04-27T02:27:05.317Z,8.51
2018-04-27T02:28:05.041Z,8.46
2018-04-27T02:29:05.290Z,8.41
2018-04-27T02:30:05.295Z,8.38
2018-04-27T02:31:05.286Z,8.49
2018-04-27T02:32:05.273Z,8.49
2018-04-27T02:33:05.021Z,8.42
2018-04-27T02:34:05.275Z,8.38
2018-04-27T02:35:05.022Z,8.44
2018-04-27T02:36:04.997Z,8.42
2018-04-27T02:37:05.008Z,8.46
2018-04-27T02:38:05.261Z,8.45
2018-04-27T02:39:04.992Z,8.38
2018-04-27T02:40:04.983Z,8.28
2018-04-27T02:41:04.979Z,8.34
2018-04-27T02:42:05.208Z,8.33
2018-04-27T02:43:04.714Z,8.28
2018-04-27T02:44:04.952Z,8.31
2018-04-27T02:45:05.198Z,8.16
2018-04-27T02:46:05.194Z,8.3
2018-04-27T02:47:05.196Z,8.23
2018-04-27T02:48:05.186Z,8.19
2018-04-27T02:49:05.188Z,8.24
2018-04-27T02:50:04.672Z,8.28
2018-04-27T02:51:05.177Z,8.15
2018-04-27T02:52:05.157Z,8.18
2018-04-27T02:53:05.156Z,8.2
2018-04-27T02:54:05.143Z,8.16
2018-04-27T02:55:05.140Z,8.16
2018-04-27T02:56:05.131Z,8.15
2018-04-27T02:57:05.127Z,8.03
2018-04-27T02:58:04.874Z,8.1
2018-04-27T02:59:05.118Z,8.12
2018-04-27T03:00:05.113Z,8.09
2018-04-27T03:01:05.126Z,8.03
2018-04-27T03:02:05.106Z,8.13
2018-04-27T03:03:05.181Z,8.19
2018-04-27T03:04:04.839Z,8.18
2018-04-27T03:05:05.093Z,8.23
2018-04-27T03:06:05.070Z,8.26
2018-04-27T03:07:04.580Z,8.34
2018-04-27T03:08:05.064Z,8.48
2018-04-27T03:09:04.863Z,8.52
2018-04-27T03:10:04.806Z,8.56
2018-04-27T03:11:05.049Z,8.64
2018-04-27T03:12:05.050Z,8.58
2018-04-27T03:13:05.040Z,8.63
2018-04-27T03:14:05.842Z,8.58
2018-04-27T03:15:05.026Z,8.58
2018-04-27T03:16:05.028Z,8.56
2018-04-27T03:17:05.013Z,8.55
2018-04-27T03:18:05.012Z,8.58
2018-04-27T03:19:05.258Z,8.58
2018-04-27T03:20:05.000Z,8.63
2018-04-27T03:21:04.998Z,8.63
2018-04-27T03:22:04.737Z,8.58
2018-04-27T03:23:05.267Z,8.7
2018-04-27T03:24:05.146Z,8.78
2018-04-27T03:25:04.971Z,8.74
2018-04-27T03:26:04.976Z,8.82
2018-04-27T03:27:04.712Z,8.74
2018-04-27T03:28:04.460Z,8.76
2018-04-27T03:29:06.555Z,8.74
2018-04-27T03:37:58.784Z,8.51
2018-04-27T03:38:58.774Z,8.38
2018-04-27T03:39:58.509Z,8.42
2018-04-27T03:40:58.755Z,8.44
2018-04-27T03:41:58.756Z,8.41
2018-04-27T03:42:58.756Z,8.41
2018-04-27T03:43:58.749Z,8.44
2018-04-27T03:44:58.735Z,8.42
2018-04-27T03:45:58.482Z,8.42
2018-04-27T03:46:58.720Z,8.42
2018-04-27T03:47:58.723Z,8.41
2018-04-27T03:48:58.726Z,8.44
2018-04-27T03:49:58.709Z,8.31
2018-04-27T03:50:58.699Z,8.2
2018-04-27T03:51:58.864Z,8.3
2018-04-27T03:52:58.703Z,8.13
2018-04-27T03:53:58.692Z,8.15
2018-04-27T03:54:58.428Z,8.16
2018-04-27T03:55:58.667Z,8.2
2018-04-27T03:56:58.425Z,8.18
2018-04-27T03:57:58.415Z,8.13
2018-04-27T03:58:58.656Z,8.06
2018-04-27T03:59:58.648Z,8.08
2018-04-27T04:00:58.400Z,8.03
2018-04-27T04:01:58.397Z,7.95
2018-04-27T04:02:58.641Z,8.01
2018-04-27T04:03:58.625Z,7.97
2018-04-27T04:04:58.373Z,7.91
2018-04-27T04:05:58.619Z,7.94
2018-04-27T04:06:58.609Z,7.88
2018-04-27T04:07:58.608Z,7.88
2018-04-27T04:08:58.349Z,7.98
2018-04-27T04:09:58.350Z,7.91
2018-04-27T04:10:58.578Z,7.94
2018-04-27T04:11:58.594Z,7.77
2018-04-27T04:12:58.598Z,7.77
2018-04-27T04:13:58.560Z,7.79
2018-04-27T04:14:58.561Z,7.73
2018-04-27T04:15:58.555Z,7.75
2018-04-27T04:16:58.302Z,7.66
2018-04-27T04:17:58.548Z,7.75
2018-04-27T04:18:58.535Z,7.79
2018-04-27T04:19:58.534Z,7.73
2018-04-27T04:20:58.273Z,7.79
2018-04-27T04:21:58.525Z,7.79
2018-04-27T04:22:58.519Z,7.72
2018-04-27T04:23:58.514Z,7.82
2018-04-27T04:24:58.258Z,7.75
2018-04-27T04:25:58.496Z,7.82
2018-04-27T04:26:58.489Z,7.77
2018-04-27T04:27:58.497Z,7.83
2018-04-27T04:28:58.487Z,7.94
2018-04-27T04:29:58.470Z,7.95
2018-04-27T04:30:58.477Z,7.94
2018-04-27T04:31:58.243Z,7.94
2018-04-27T04:32:58.492Z,8.03
2018-04-27T04:33:58.207Z,8.05
2018-04-27T04:34:58.446Z,8.19
2018-04-27T04:35:58.446Z,8.13
2018-04-27T04:36:58.434Z,8.13
2018-04-27T04:37:58.199Z,8.33
2018-04-27T04:38:58.176Z,8.44
2018-04-27T04:39:58.173Z,8.49
2018-04-27T04:40:58.175Z,8.56
2018-04-27T04:41:58.417Z,8.58
2018-04-27T04:42:58.158Z,8.74
2018-04-27T04:43:58.395Z,8.89
2018-04-27T04:44:57.895Z,9.13
2018-04-27T04:45:58.384Z,9.29
2018-04-27T04:46:58.137Z,9.41
2018-04-27T04:47:58.403Z,9.69
2018-04-27T04:48:58.124Z,10.1
2018-04-27T04:49:58.120Z,10.3
2018-04-27T04:50:58.369Z,10.54
2018-04-27T04:51:58.366Z,10.84
2018-04-27T04:52:58.465Z,11.12
2018-04-27T04:53:58.366Z,11.37
2018-04-27T04:54:58.167Z,11.41
2018-04-27T04:55:58.350Z,11.44
2018-04-27T04:56:58.098Z,11.47
2018-04-27T04:57:58.099Z,11.5
2018-04-27T04:58:58.345Z,11.59
2018-04-27T04:59:58.352Z,11.63
2018-04-27T05:00:58.342Z,11.5
2018-04-27T05:01:58.339Z,11.47
2018-04-27T05:02:58.283Z,11.51
2018-04-27T05:03:58.327Z,11.68
2018-04-27T05:04:58.370Z,11.8
2018-04-27T05:05:58.090Z,11.95
2018-04-27T05:06:58.322Z,12.12
2018-04-27T05:07:58.076Z,12.18
2018-04-27T05:08:58.320Z,12.36
2018-04-27T05:09:58.071Z,12.46
2018-04-27T05:10:58.152Z,12.49
2018-04-27T05:11:58.317Z,12.49
2018-04-27T05:12:58.068Z,12.4
2018-04-27T05:13:58.333Z,12.37
2018-04-27T05:14:58.069Z,12.18
2018-04-27T05:15:58.319Z,12.02
2018-04-27T05:16:58.321Z,11.81
2018-04-27T05:17:58.319Z,11.57
2018-04-27T05:18:58.068Z,11.36
2018-04-27T05:19:57.801Z,11.37
2018-04-27T05:20:58.311Z,11.17
2018-04-27T05:21:58.046Z,11.05
2018-04-27T05:22:58.305Z,10.94
2018-04-27T05:23:58.295Z,10.78
2018-04-27T05:24:58.100Z,10.67
2018-04-27T05:25:58.039Z,10.61
2018-04-27T05:26:58.036Z,10.51
2018-04-27T05:27:58.037Z,10.54
2018-04-27T05:28:58.281Z,10.41
2018-04-27T05:29:58.275Z,10.44
2018-04-27T05:30:58.273Z,10.25
2018-04-27T05:31:58.278Z,10.26
2018-04-27T05:32:59.080Z,10.13
2018-04-27T05:33:58.019Z,10.12
2018-04-27T05:34:58.267Z,10.09
2018-04-27T05:35:58.279Z,10.04
2018-04-27T05:36:58.269Z,9.99
2018-04-27T05:37:58.004Z,10.01
2018-04-27T05:38:58.262Z,9.99
2018-04-27T05:39:58.246Z,9.92
2018-04-27T05:40:58.239Z,10.05
2018-04-27T05:41:58.247Z,10.16
2018-04-27T05:42:58.313Z,10.16
2018-04-27T05:43:58.301Z,10.17
2018-04-27T05:44:58.232Z,10.26
2018-04-27T05:45:57.978Z,10.35
2018-04-27T05:46:57.987Z,10.35
2018-04-27T05:47:57.966Z,10.33
2018-04-27T05:48:58.389Z,10.46
2018-04-27T05:49:58.207Z,10.54
2018-04-27T05:50:58.207Z,10.63
2018-04-27T05:51:57.968Z,10.76
2018-04-27T05:52:58.223Z,10.71
2018-04-27T05:53:58.205Z,10.78
2018-04-27T05:54:57.948Z,10.76
2018-04-27T05:55:58.194Z,10.84
2018-04-27T05:56:57.943Z,10.79
2018-04-27T05:57:58.188Z,10.82
2018-04-27T05:58:57.946Z,10.82
2018-04-27T05:59:58.183Z,10.92
2018-04-27T06:00:57.930Z,10.97
2018-04-27T06:01:58.174Z,11.02
2018-04-27T06:02:58.883Z,11.19
2018-04-27T06:03:57.918Z,11.35
2018-04-27T06:04:58.164Z,11.4
2018-04-27T06:05:58.162Z,11.4
2018-04-27T06:06:57.911Z,11.35
2018-04-27T06:07:57.911Z,11.37
2018-04-27T06:08:58.162Z,11.29
2018-04-27T06:09:57.902Z,11.36
2018-04-27T06:10:57.904Z,11.33
2018-04-27T06:11:58.159Z,11.3
2018-04-27T06:12:57.933Z,11.44
2018-04-27T06:13:58.142Z,11.59
2018-04-27T06:23:02.144Z,16.15
2018-04-27T06:24:02.134Z,16.51
2018-04-27T06:25:01.881Z,16.84
2018-04-27T06:26:02.133Z,17.09
2018-04-27T06:27:02.206Z,17.29
2018-04-27T06:28:02.130Z,17.38
2018-04-27T06:29:02.131Z,17.65
2018-04-27T06:30:01.876Z,17.78
2018-04-27T06:31:02.129Z,18.04
2018-04-27T06:32:01.874Z,18.44
2018-04-27T06:33:02.133Z,18.62
2018-04-27T06:34:01.887Z,18.84
2018-04-27T06:35:01.886Z,19.07
2018-04-27T06:36:01.891Z,19.26
2018-04-27T06:37:01.650Z,19.33
2018-04-27T06:38:01.896Z,19.31
2018-04-27T06:39:01.890Z,19.47
2018-04-27T06:40:02.148Z,19.69
2018-04-27T06:41:02.230Z,19.69
2018-04-27T06:42:01.954Z,19.85
2018-04-27T06:43:02.155Z,19.84
2018-04-27T06:44:02.163Z,20.03
2018-04-27T06:45:02.163Z,20.41
2018-04-27T06:46:02.170Z,20.65
2018-04-27T06:47:02.183Z,20.84
2018-04-27T06:48:02.060Z,20.99
2018-04-27T06:49:02.259Z,20.74
2018-04-27T06:50:02.186Z,20.39
2018-04-27T06:51:01.943Z,19.88
2018-04-27T06:52:02.201Z,19.49
2018-04-27T06:53:02.199Z,19
2018-04-27T06:54:01.953Z,18.56
2018-04-27T06:55:02.218Z,18.28
2018-04-27T06:56:02.222Z,18.26
2018-04-27T06:57:02.240Z,18.15
2018-04-27T06:58:01.989Z,18.26
2018-04-27T06:59:01.983Z,18.52
2018-04-27T07:00:02.241Z,18.88
2018-04-27T07:01:02.254Z,18.78
2018-04-27T07:02:01.992Z,18.55
2018-04-27T07:03:02.245Z,18.71
2018-04-27T07:04:01.773Z,18.73
2018-04-27T07:05:01.773Z,18.95
2018-04-27T07:06:02.267Z,18.95
2018-04-27T07:07:02.271Z,18.95
2018-04-27T07:08:02.282Z,18.99
2018-04-27T07:09:02.284Z,19.11
2018-04-27T07:10:02.035Z,19.31
2018-04-27T07:11:02.302Z,19.99
2018-04-27T07:12:02.309Z,20.29
2018-04-27T07:13:02.315Z,20.6
2018-04-27T07:14:02.332Z,20.26
2018-04-27T07:15:02.320Z,19.82
2018-04-27T07:16:02.314Z,19.34
2018-04-27T07:17:02.306Z,18.74
2018-04-27T07:18:02.145Z,18.71
2018-04-27T07:19:02.406Z,19.09
2018-04-27T07:20:02.335Z,19.16
2018-04-27T07:21:02.354Z,18.78
2018-04-27T07:22:02.349Z,18.81
2018-04-27T07:23:01.855Z,18.88
2018-04-27T07:24:02.114Z,18.53
2018-04-27T07:25:02.361Z,17.97
2018-04-27T07:26:02.181Z,17.33
2018-04-27T07:27:02.143Z,17.04
2018-04-27T07:28:02.133Z,16.91
2018-04-27T07:29:02.384Z,16.79
2018-04-27T07:30:02.401Z,16.71
2018-04-27T07:31:02.399Z,16.42
2018-04-27T07:32:02.394Z,16.65
2018-04-27T07:33:02.395Z,16.71
2018-04-27T07:34:02.147Z,16.68
2018-04-27T07:35:02.398Z,16.6
2018-04-27T07:36:02.402Z,16.79
2018-04-27T07:37:02.420Z,17.19
2018-04-27T07:38:03.117Z,17.49
2018-04-27T07:39:02.172Z,17.94
2018-04-27T07:40:02.417Z,17.83
2018-04-27T07:41:02.422Z,17.72
2018-04-27T07:42:02.436Z,17.51
2018-04-27T07:43:02.426Z,17.49
2018-04-27T07:44:01.930Z,17.56
2018-04-27T07:45:02.438Z,17.65
2018-04-27T07:46:02.459Z,17.95
2018-04-27T07:47:02.433Z,18.11
2018-04-27T07:48:02.196Z,18.18
2018-04-27T07:49:02.445Z,18.29
2018-04-27T07:50:02.241Z,18.47
2018-04-27T07:51:02.269Z,18.89
2018-04-27T07:52:02.469Z,19.59
2018-04-27T07:53:02.208Z,20.26
2018-04-27T07:54:02.223Z,21.02
2018-04-27T07:55:02.248Z,21.46
2018-04-27T07:56:02.477Z,22.14
2018-04-27T07:57:02.480Z,22.57
2018-04-27T07:58:02.480Z,22.84
2018-04-27T07:59:02.485Z,23.43
2018-04-27T08:00:02.237Z,23.65
2018-04-27T08:01:02.497Z,23.54
2018-04-27T08:02:02.248Z,23.56
2018-04-27T08:03:02.256Z,23.15
2018-04-27T08:04:02.276Z,23
2018-04-27T08:05:02.513Z,22.66
2018-04-27T08:06:02.534Z,22.35
2018-04-27T08:07:02.030Z,21.98
2018-04-27T08:08:04.742Z,21.82
2018-04-27T08:09:02.732Z,22.04
2018-04-27T08:10:02.303Z,21.96
2018-04-27T08:11:02.309Z,21.82
2018-04-27T08:12:02.564Z,21.93
2018-04-27T08:13:02.563Z,22.07
2018-04-27T08:14:02.571Z,22.06
2018-04-27T08:15:02.573Z,22.15
2018-04-27T08:16:02.339Z,22.6
2018-04-27T08:17:02.590Z,22.68
2018-04-27T08:18:02.595Z,22.76
2018-04-27T08:19:02.595Z,22.73
2018-04-27T08:20:02.623Z,22.55
2018-04-27T08:21:02.608Z,22.53
2018-04-27T08:22:02.369Z,22.55
2018-04-27T08:23:03.079Z,22.66
2018-04-27T08:24:02.376Z,22.91
2018-04-27T08:25:02.386Z,23.08
2018-04-27T08:26:02.645Z,23.23
2018-04-27T08:27:02.139Z,23.5
2018-04-27T08:28:02.646Z,23.61
2018-04-27T08:29:02.652Z,23.56
2018-04-27T08:30:02.658Z,23.51
2018-04-27T08:31:02.413Z,23.62
2018-04-27T08:32:02.436Z,23.91
2018-04-27T08:33:02.672Z,24.01
2018-04-27T08:34:02.681Z,23.86
2018-04-27T08:35:02.683Z,23.77
2018-04-27T08:36:02.710Z,23.43
2018-04-27T08:37:02.709Z,23.13
2018-04-27T08:38:02.445Z,22.69
2018-04-27T08:39:02.721Z,22.26
2018-04-27T08:40:02.465Z,21.73
2018-04-27T08:41:02.470Z,21.2
2018-04-27T08:42:02.730Z,20.81
2018-04-27T08:43:02.743Z,20.26
2018-04-27T08:44:02.235Z,19.88
2018-04-27T08:45:02.504Z,19.47
2018-04-27T08:46:02.749Z,19.19
2018-04-27T08:47:02.806Z,18.84
2018-04-27T08:48:02.512Z,18.78
2018-04-27T08:49:02.337Z,18.75
2018-04-27T08:50:02.771Z,18.74
2018-04-27T08:51:02.531Z,18.7
2018-04-27T08:52:02.526Z,18.58
2018-04-27T08:53:02.803Z,18.62
2018-04-27T08:54:02.785Z,18.62
2018-04-27T08:55:02.790Z,18.59
2018-04-27T08:56:02.300Z,18.52
2018-04-27T08:57:02.796Z,18.55
2018-04-27T08:58:02.811Z,18.47
2018-04-27T08:59:02.810Z,18.45
2018-04-27T09:00:02.809Z,18.47
2018-04-27T09:01:02.811Z,18.38
2018-04-27T09:02:02.571Z,18.47
2018-04-27T09:03:02.567Z,18.55
2018-04-27T09:04:02.569Z,18.55
2018-04-27T09:05:02.822Z,18.45
2018-04-27T09:06:02.330Z,18.44
2018-04-27T09:07:02.829Z,18.5
2018-04-27T09:08:02.841Z,18.37
2018-04-27T09:09:02.595Z,18.43
2018-04-27T09:10:02.843Z,18.43
2018-04-27T09:11:02.344Z,18.52
2018-04-27T09:12:02.837Z,18.44
2018-04-27T09:13:02.600Z,18.53
2018-04-27T09:14:02.607Z,18.52
2018-04-27T09:15:02.846Z,18.53
2018-04-27T09:16:02.601Z,18.62
2018-04-27T09:17:02.853Z,18.56
2018-04-27T09:18:02.852Z,18.65
2018-04-27T09:19:02.617Z,18.7
2018-04-27T09:20:02.384Z,18.83
2018-04-27T09:21:02.867Z,18.88
2018-04-27T09:22:02.862Z,18.96
2018-04-27T09:23:02.611Z,18.95
2018-04-27T09:24:02.914Z,18.93
2018-04-27T09:25:02.682Z,19
2018-04-27T09:26:02.866Z,19.02
2018-04-27T09:27:02.837Z,19.07
2018-04-27T09:28:02.715Z,18.98
2018-04-27T09:29:02.630Z,19.04
2018-04-27T09:30:02.881Z,19.07
2018-04-27T09:31:02.624Z,19.04
2018-04-27T09:32:02.631Z,18.88
2018-04-27T09:33:02.636Z,18.9
2018-04-27T09:34:02.886Z,18.93
2018-04-27T09:35:02.892Z,19.04
2018-04-27T09:36:02.887Z,19.09
2018-04-27T09:37:02.899Z,19.11
2018-04-27T09:38:02.897Z,19.07
2018-04-27T09:39:04.757Z,18.95
2018-04-27T09:40:02.897Z,19.07
2018-04-27T09:41:03.144Z,19.02
2018-04-27T09:42:02.648Z,18.96
2018-04-27T09:43:02.901Z,18.9
2018-04-27T09:44:02.903Z,18.93
2018-04-27T09:45:02.906Z,19.15
2018-04-27T09:46:02.669Z,19.16
2018-04-27T09:47:02.414Z,19.16
2018-04-27T09:48:02.669Z,19.24
2018-04-27T09:49:02.911Z,19.27
2018-04-27T09:50:02.913Z,19.31
2018-04-27T09:51:02.669Z,19.29
2018-04-27T09:52:02.674Z,19.19
2018-04-27T09:53:02.922Z,19.12
2018-04-27T09:54:02.941Z,19.22
2018-04-27T09:55:02.672Z,19.07
2018-04-27T09:56:02.921Z,19.15
2018-04-27T09:57:02.926Z,19.18
2018-04-27T09:58:02.675Z,19.15
2018-04-27T09:59:02.926Z,19.22
2018-04-27T10:00:02.938Z,19.27
2018-04-27T10:01:02.691Z,19.29
2018-04-27T10:02:02.688Z,19.26
2018-04-27T10:03:02.941Z,19.39
2018-04-27T10:04:02.692Z,19.31
2018-04-27T10:05:02.700Z,19.41
2018-04-27T10:06:02.449Z,19.48
2018-04-27T10:07:02.443Z,19.49
2018-04-27T10:08:02.699Z,19.51
2018-04-27T10:09:03.754Z,19.44
2018-04-27T10:10:02.702Z,19.34
2018-04-27T10:11:02.699Z,19.34
2018-04-27T10:12:02.956Z,19.34
2018-04-27T10:13:02.706Z,19.37
2018-04-27T10:14:02.957Z,19.44
2018-04-27T10:15:02.880Z,19.36
2018-04-27T10:16:02.715Z,19.33
2018-04-27T10:17:02.715Z,19.3
2018-04-27T10:18:02.721Z,19.26
2018-04-27T10:19:02.966Z,19.34
2018-04-27T10:20:02.968Z,19.31
2018-04-27T10:21:02.969Z,19.26
2018-04-27T10:22:02.726Z,19.33
2018-04-27T10:52:42.242Z,19.73
2018-04-27T10:53:42.479Z,19.89
2018-04-27T10:54:41.975Z,19.94
2018-04-27T10:55:42.035Z,20.02
2018-04-27T10:56:42.463Z,20.03
2018-04-27T10:57:42.467Z,20.19
2018-04-27T10:58:42.487Z,20.19
2018-04-27T10:59:42.459Z,20.14
2018-04-27T11:00:41.982Z,20.06
2018-04-27T11:01:42.511Z,19.79
2018-04-27T11:02:42.468Z,19.79
2018-04-27T11:03:42.461Z,19.84
2018-04-27T11:04:42.463Z,19.81
2018-04-27T11:05:42.041Z,19.89
2018-04-27T11:06:42.484Z,20
2018-04-27T11:07:42.235Z,20.03
2018-04-27T11:08:42.230Z,20.25
2018-04-27T11:09:42.647Z,20.34
2018-04-27T11:10:42.015Z,20.37
2018-04-27T11:11:42.233Z,20.31
2018-04-27T11:12:42.480Z,20.36
2018-04-27T11:13:42.477Z,20.39
2018-04-27T11:14:42.479Z,20.34
2018-04-27T11:15:42.039Z,20.37
2018-04-27T11:16:42.581Z,20.4
2018-04-27T11:17:42.492Z,20.39
2018-04-27T11:18:42.500Z,20.24
2018-04-27T11:19:42.497Z,20.29
2018-04-27T11:20:42.502Z,20.37
2018-04-27T11:21:42.499Z,20.25
2018-04-27T11:22:42.509Z,20.29
2018-04-27T11:23:42.501Z,20.29
2018-04-27T11:24:42.507Z,20.31
2018-04-27T11:25:42.508Z,20.25
2018-04-27T11:26:42.268Z,20.31
2018-04-27T11:27:42.514Z,20.21
2018-04-27T11:28:42.700Z,20.13
2018-04-27T11:29:42.518Z,20.26
2018-04-27T11:30:42.264Z,20.39
2018-04-27T11:31:42.515Z,20.24
2018-04-27T11:32:42.272Z,20.25
2018-04-27T11:33:42.526Z,20.28
2018-04-27T11:34:42.032Z,20.25
2018-04-27T11:35:42.041Z,20.19
2018-04-27T11:36:42.527Z,19.96
2018-04-27T11:37:43.337Z,19.82
2018-04-27T11:38:42.535Z,19.85
2018-04-27T11:39:42.549Z,19.96
2018-04-27T11:40:42.543Z,19.91
2018-04-27T11:41:42.540Z,20.03
2018-04-27T11:42:42.056Z,20.07
2018-04-27T11:43:42.299Z,20.06
2018-04-27T11:44:42.305Z,20.06
2018-04-27T11:45:42.557Z,20.09
2018-04-27T11:46:42.557Z,20.16
2018-04-27T11:47:42.618Z,20.18
2018-04-27T11:48:42.565Z,20.19
2018-04-27T11:49:42.072Z,20.28
2018-04-27T11:50:42.588Z,20.34
2018-04-27T11:51:42.318Z,20.34
2018-04-27T11:52:42.316Z,20.36
2018-04-27T11:53:42.591Z,20.4
2018-04-27T11:54:42.098Z,20.5
2018-04-27T11:55:42.361Z,20.44
2018-04-27T11:56:42.335Z,20.51
2018-04-27T11:57:42.589Z,20.58
2018-04-27T11:58:42.338Z,20.58
2018-04-27T11:59:42.591Z,20.6
2018-04-27T12:00:42.673Z,20.52
2018-04-27T12:01:42.753Z,20.65
2018-04-27T12:02:42.372Z,20.69
2018-04-27T12:03:42.664Z,20.66
2018-04-27T12:04:42.351Z,20.65
2018-04-27T12:05:42.368Z,20.69
2018-04-27T12:06:42.607Z,20.67
2018-04-27T12:07:44.203Z,20.78
2018-04-27T12:08:42.359Z,20.88
2018-04-27T12:09:42.608Z,20.96
2018-04-27T12:10:42.466Z,21.03
2018-04-27T12:11:42.643Z,21.12
2018-04-27T12:12:42.372Z,21.15
2018-04-27T12:13:42.123Z,21.2
2018-04-27T12:14:42.373Z,21.14
2018-04-27T12:15:42.635Z,21.11
2018-04-27T12:16:42.150Z,21.14
2018-04-27T12:17:42.563Z,21.15
2018-04-27T12:18:42.409Z,21.15
2018-04-27T12:19:42.385Z,21.17
2018-04-27T12:20:42.445Z,21.2
2018-04-27T12:21:42.639Z,21.17
2018-04-27T12:22:42.406Z,21.24
2018-04-27T12:23:42.644Z,21.29
2018-04-27T12:24:42.651Z,21.37
2018-04-27T12:25:42.406Z,21.37
2018-04-27T12:26:42.664Z,21.36
2018-04-27T12:27:42.411Z,21.32
2018-04-27T12:28:42.676Z,21.21
2018-04-27T12:29:42.416Z,21.22
2018-04-27T12:30:42.421Z,21.36
2018-04-27T12:31:43.238Z,21.29
2018-04-27T12:32:42.426Z,21.37
2018-04-27T12:33:42.428Z,21.43
2018-04-27T12:34:42.678Z,21.37
2018-04-27T12:35:42.685Z,21.4
2018-04-27T12:36:42.682Z,21.35
2018-04-27T12:37:42.683Z,21.32
2018-04-27T12:38:42.711Z,21.35
2018-04-27T12:39:42.477Z,21.35
2018-04-27T12:40:42.441Z,21.37
2018-04-27T12:41:42.692Z,21.32
2018-04-27T12:42:42.215Z,21.35
2018-04-27T12:43:42.704Z,21.21
2018-04-27T12:44:42.709Z,21.14
2018-04-27T12:45:42.702Z,21.2
2018-04-27T12:46:42.709Z,21.2
2018-04-27T12:47:42.847Z,21.18
2018-04-27T12:48:42.481Z,21.25
2018-04-27T12:49:42.792Z,21.25
2018-04-27T12:50:42.484Z,21.33
2018-04-27T12:51:42.725Z,21.35
2018-04-27T12:52:42.227Z,21.43
2018-04-27T12:53:42.763Z,21.52
2018-04-27T12:54:42.240Z,21.46
2018-04-27T12:55:42.743Z,21.57
2018-04-27T12:56:42.755Z,21.58
2018-04-27T12:57:42.498Z,21.69
2018-04-27T12:58:42.254Z,21.62
2018-04-27T12:59:42.754Z,21.57
2018-04-27T13:00:42.752Z,21.57
2018-04-27T13:01:42.756Z,21.67
2018-04-27T13:02:42.765Z,21.64
2018-04-27T13:03:42.765Z,21.58
2018-04-27T13:04:42.525Z,21.6
2018-04-27T13:05:42.542Z,21.64
2018-04-27T13:06:42.532Z,21.73
2018-04-27T13:07:42.766Z,21.67
2018-04-27T13:08:42.987Z,21.73
2018-04-27T13:09:42.547Z,21.77
2018-04-27T13:10:42.302Z,21.76
2018-04-27T13:11:42.549Z,21.64
2018-04-27T13:12:42.537Z,21.54
2018-04-27T13:13:42.546Z,21.45
2018-04-27T13:14:42.796Z,21.42
2018-04-27T13:15:42.800Z,21.39
2018-04-27T13:16:42.814Z,21.27
2018-04-27T13:17:42.799Z,21.29
2018-04-27T13:18:42.834Z,21.29
2018-04-27T13:19:42.572Z,21.14
2018-04-27T13:20:42.892Z,21.12
2018-04-27T13:21:42.811Z,21.14
2018-04-27T13:22:42.573Z,21.17
2018-04-27T13:23:42.573Z,21.21
2018-04-27T13:24:42.574Z,21.25
2018-04-27T13:25:42.597Z,21.45
2018-04-27T13:26:42.655Z,21.52
2018-04-27T13:27:42.838Z,21.55
2018-04-27T13:28:42.594Z,21.6
2018-04-27T13:29:42.838Z,21.67
2018-04-27T13:30:42.597Z,21.76
2018-04-27T13:31:42.844Z,21.8
2018-04-27T13:32:42.597Z,21.79
2018-04-27T13:33:42.852Z,21.89
2018-04-27T13:34:42.860Z,21.76
2018-04-27T13:35:42.861Z,21.8
2018-04-27T13:36:42.611Z,21.64
2018-04-27T13:37:42.615Z,21.8
2018-04-27T13:38:42.870Z,21.89
2018-04-27T13:39:42.870Z,21.89
2018-04-27T13:40:42.869Z,22.07
2018-04-27T13:41:42.643Z,22.1
2018-04-27T13:42:42.638Z,22.11
2018-04-27T13:43:42.890Z,22.07
2018-04-27T13:44:42.892Z,22.07
2018-04-27T13:45:42.899Z,22.11
2018-04-27T13:46:42.646Z,22.14
2018-04-27T13:47:42.899Z,22.11
2018-04-27T13:48:42.418Z,22.07